createdAt,value
2019-02-12T00:03:36.040Z,4.70
2019-02-12T00:08:54.748Z,4.72
2019-02-12T00:14:13.496Z,5.00
2019-02-12T00:19:32.279Z,4.90
2019-02-12T00:24:51.179Z,4.80
2019-02-12T00:30:11.403Z,5.77
2019-02-12T00:35:30.338Z,4.37
2019-02-12T00:40:49.009Z,5.23
2019-02-12T00:46:07.718Z,5.23
2019-02-12T00:51:26.422Z,5.37
2019-02-12T00:56:45.214Z,6.17
2019-02-12T01:02:03.945Z,3.60
2019-02-12T01:07:22.692Z,6.27
2019-02-12T01:12:41.488Z,3.90
2019-02-12T01:18:00.253Z,4.80
2019-02-12T01:23:18.941Z,5.17
2019-02-12T01:28:37.857Z,4.63
2019-02-12T01:33:56.732Z,3.90
2019-02-12T01:39:15.567Z,4.65
2019-02-12T01:44:34.530Z,5.83
2019-02-12T01:49:53.320Z,5.80
2019-02-12T01:55:12.334Z,4.33
2019-02-12T02:00:31.107Z,3.07
2019-02-12T02:05:49.879Z,5.10
2019-02-12T02:11:08.572Z,5.33
2019-02-12T02:16:27.379Z,5.40
2019-02-12T02:21:46.062Z,5.73
2019-02-12T02:27:04.936Z,5.17
2019-02-12T02:32:23.692Z,5.17
2019-02-12T02:37:42.523Z,5.20
2019-02-12T02:43:01.245Z,4.93
2019-02-12T02:48:19.987Z,5.40
2019-02-12T02:53:39.068Z,6.67
2019-02-12T02:58:57.782Z,5.50
2019-02-12T03:04:16.425Z,4.90
2019-02-12T03:09:35.125Z,6.00
2019-02-12T03:14:53.845Z,7.03
2019-02-12T03:20:13.039Z,7.37
2019-02-12T03:25:31.793Z,6.37
2019-02-12T03:30:50.679Z,5.85
2019-02-12T03:36:09.367Z,6.20
2019-02-12T03:41:28.234Z,5.73
2019-02-12T03:46:46.976Z,5.90
2019-02-12T03:52:12.688Z,6.37
2019-02-12T03:57:26.535Z,6.70
2019-02-12T04:03:07.439Z,7.20
2019-02-12T04:08:27.889Z,5.63
2019-02-12T04:13:46.579Z,7.87
2019-02-12T04:19:05.271Z,8.03
2019-02-12T04:24:26.148Z,8.37
2019-02-12T04:29:44.936Z,7.80
2019-02-12T04:35:03.709Z,5.47
2019-02-12T04:40:22.788Z,6.42
2019-02-12T04:45:41.426Z,8.30
2019-02-12T04:51:00.426Z,4.97
2019-02-12T04:56:19.235Z,8.53
2019-02-12T05:01:38.959Z,7.43
2019-02-12T05:06:57.703Z,7.17
2019-02-12T05:12:18.397Z,8.37
2019-02-12T05:17:36.982Z,8.93
2019-02-12T05:22:56.037Z,9.43
2019-02-12T05:28:14.811Z,8.97
2019-02-12T05:33:35.143Z,7.23
2019-02-12T05:39:01.160Z,9.73
2019-02-12T05:44:21.537Z,9.73
2019-02-12T05:49:41.741Z,10.83
2019-02-12T05:55:00.445Z,11.83
2019-02-12T06:00:40.581Z,11.20
2019-02-12T06:06:18.490Z,12.37
2019-02-12T06:11:39.239Z,14.07
2019-02-12T06:17:01.042Z,13.67
2019-02-12T06:22:19.912Z,12.20
2019-02-12T06:27:38.595Z,12.97
2019-02-12T06:32:57.292Z,13.87
2019-02-12T06:38:29.367Z,12.27
2019-02-12T06:55:36.626Z,10.33
2019-02-12T07:00:57.057Z,10.10
2019-02-12T07:06:30.993Z,9.47
2019-02-12T07:12:15.114Z,10.47
2019-02-12T07:18:06.903Z,10.23
2019-02-12T07:23:31.402Z,7.87
2019-02-12T07:29:29.499Z,7.80
2019-02-12T07:35:10.607Z,9.00
2019-02-12T07:40:32.201Z,7.97
2019-02-12T07:45:53.784Z,9.13
2019-02-12T07:51:20.114Z,8.60
2019-02-12T07:57:02.607Z,7.57
2019-02-12T08:02:57.030Z,10.07
2019-02-12T08:08:35.097Z,8.17
2019-02-12T08:14:05.374Z,9.50
2019-02-12T08:19:35.821Z,10.37
2019-02-12T08:25:30.268Z,8.43
2019-02-12T08:31:12.651Z,8.70
2019-02-12T08:36:40.327Z,9.50
2019-02-12T08:42:15.720Z,9.20
2019-02-12T08:47:55.039Z,9.20
2019-02-12T08:53:33.369Z,9.77
2019-02-12T08:59:12.951Z,10.27
2019-02-12T09:04:53.670Z,10.90
2019-02-12T09:10:40.769Z,11.13
2019-02-12T09:16:10.478Z,12.33
2019-02-12T09:21:54.170Z,12.30
2019-02-12T09:27:30.646Z,10.83
2019-02-12T09:39:16.053Z,9.53
2019-02-12T09:44:46.399Z,10.40
2019-02-12T09:50:10.826Z,9.70
2019-02-12T09:55:54.497Z,8.60
2019-02-12T10:01:21.719Z,8.83
2019-02-12T10:06:49.000Z,7.93
2019-02-12T10:12:19.122Z,6.97
2019-02-12T10:17:43.233Z,10.40
2019-02-12T10:23:13.304Z,9.17
2019-02-12T10:28:49.732Z,9.33
2019-02-12T10:34:08.359Z,9.08
2019-02-12T10:39:28.853Z,12.17
2019-02-12T10:44:47.502Z,7.83
2019-02-12T10:50:08.153Z,12.87
2019-02-12T10:55:27.591Z,13.23
2019-02-12T11:00:46.233Z,12.63
2019-02-12T11:06:05.052Z,14.37
2019-02-12T11:11:23.889Z,14.57
2019-02-12T11:16:42.444Z,14.13
2019-02-12T11:22:01.079Z,10.65
2019-02-12T11:27:19.743Z,11.43
2019-02-12T11:32:38.285Z,9.77
2019-02-12T11:37:56.837Z,9.63
2019-02-12T11:43:15.484Z,8.27
2019-02-12T11:48:34.048Z,9.50
2019-02-12T11:53:52.602Z,9.83
2019-02-12T11:59:11.150Z,6.83
2019-02-12T12:04:29.851Z,9.90
2019-02-12T12:09:48.506Z,8.83
2019-02-12T12:15:09.905Z,8.80
2019-02-12T12:20:28.538Z,8.47
2019-02-12T12:25:47.399Z,8.30
2019-02-12T12:31:06.031Z,8.57
2019-02-12T12:36:24.666Z,8.17
2019-02-12T12:41:43.336Z,7.00
2019-02-12T12:47:01.822Z,7.83
2019-02-12T12:52:20.293Z,7.37
2019-02-12T12:57:42.140Z,8.30
2019-02-12T13:03:04.684Z,6.70
2019-02-12T13:08:23.977Z,7.03
2019-02-12T13:13:47.948Z,6.83
2019-02-12T13:19:39.111Z,5.50
2019-02-12T13:25:14.857Z,6.57
2019-02-12T13:35:57.811Z,5.73
2019-02-12T13:41:18.124Z,6.17
2019-02-12T13:53:00.696Z,6.70
2019-02-12T13:58:19.271Z,5.90
2019-02-12T14:03:37.958Z,6.13
2019-02-12T14:08:56.500Z,6.17
2019-02-12T14:14:15.002Z,5.33
2019-02-12T14:19:33.487Z,5.20
2019-02-12T14:24:58.010Z,5.83
2019-02-12T14:30:24.613Z,4.37
2019-02-12T14:35:58.270Z,6.03
2019-02-12T14:47:53.724Z,4.97
2019-02-12T14:52:35.113Z,6.00
2019-02-12T14:57:58.484Z,5.50
2019-02-12T15:15:43.169Z,6.20
2019-02-12T15:21:02.777Z,5.97
2019-02-12T15:26:21.332Z,7.70
2019-02-12T15:31:41.421Z,6.20
2019-02-12T15:36:59.912Z,7.43
2019-02-12T15:42:18.582Z,6.63
2019-02-12T15:53:05.743Z,9.10
2019-02-12T15:58:25.959Z,8.60
2019-02-12T16:03:44.526Z,9.37
2019-02-12T16:09:04.761Z,8.33
2019-02-12T16:14:23.612Z,9.03
2019-02-12T16:19:42.239Z,10.63
2019-02-12T16:25:00.794Z,9.00
2019-02-12T16:30:20.752Z,7.28
2019-02-12T16:35:39.370Z,8.50
2019-02-12T16:40:57.916Z,9.13
2019-02-12T16:46:20.490Z,9.07
2019-02-12T16:51:49.051Z,9.83
2019-02-12T16:57:07.690Z,9.17
2019-02-12T17:02:26.543Z,8.30
2019-02-12T17:07:47.206Z,8.30
2019-02-12T17:13:06.035Z,8.47
2019-02-12T17:18:24.503Z,8.73
2019-02-12T17:23:43.047Z,9.70
2019-02-12T17:29:04.327Z,9.40
2019-02-12T17:34:22.809Z,9.33
2019-02-12T17:39:41.297Z,10.00
2019-02-12T17:44:59.775Z,8.53
2019-02-12T17:50:18.359Z,11.05
2019-02-12T17:55:36.833Z,10.10
2019-02-12T18:00:55.527Z,10.03
2019-02-12T18:06:14.116Z,11.40
2019-02-12T18:11:32.652Z,11.23
2019-02-12T18:16:51.227Z,10.48
2019-02-12T18:22:20.971Z,12.00
2019-02-12T18:28:09.292Z,10.40
2019-02-12T18:39:32.125Z,11.57
2019-02-12T18:45:34.927Z,11.83
2019-02-12T18:56:45.604Z,11.90
2019-02-12T19:08:37.427Z,11.83
2019-02-12T19:25:38.770Z,12.30
2019-02-12T19:30:57.249Z,13.30
2019-02-12T19:36:36.710Z,11.77
2019-02-12T19:42:05.018Z,13.37
2019-02-12T19:47:29.863Z,13.03
2019-02-12T19:52:57.648Z,13.17
2019-02-12T19:58:23.852Z,12.87
2019-02-12T20:03:54.349Z,13.32
2019-02-12T20:09:15.158Z,14.93
2019-02-12T20:14:52.491Z,14.73
2019-02-12T20:20:44.905Z,15.53
2019-02-12T20:25:54.299Z,14.07
2019-02-12T20:31:20.674Z,15.13
2019-02-12T20:36:41.681Z,13.65
2019-02-12T20:42:11.052Z,14.70
2019-02-12T20:47:33.127Z,15.60
2019-02-12T20:52:51.957Z,14.83
2019-02-12T20:58:50.924Z,12.93
2019-02-12T21:04:10.090Z,15.30
2019-02-12T21:09:28.836Z,4.87
2019-02-12T21:14:47.437Z,13.75
2019-02-12T21:20:10.483Z,13.97
2019-02-12T21:25:30.859Z,14.80
2019-02-12T21:30:51.188Z,14.53
2019-02-12T21:36:10.335Z,14.83
2019-02-12T21:41:29.174Z,14.87
2019-02-12T21:46:47.773Z,14.23
2019-02-12T21:52:06.498Z,14.13
2019-02-12T21:57:31.742Z,14.53
2019-02-12T22:02:48.549Z,15.17
2019-02-12T22:08:07.126Z,13.53
2019-02-12T22:13:25.686Z,11.80
2019-02-12T22:18:44.322Z,12.97
2019-02-12T22:24:02.868Z,14.00
2019-02-12T22:29:22.898Z,14.37
2019-02-12T22:34:41.777Z,12.67
2019-02-12T22:40:01.507Z,12.13
2019-02-12T22:45:24.504Z,14.63
2019-02-12T22:50:43.145Z,14.07
2019-02-12T22:56:01.706Z,12.43
2019-02-12T23:01:21.995Z,13.93
2019-02-12T23:06:40.629Z,12.63
2019-02-12T23:11:59.176Z,13.35
2019-02-12T23:17:18.079Z,13.87
2019-02-12T23:22:37.134Z,11.60
2019-02-12T23:27:57.757Z,11.83
2019-02-12T23:33:16.041Z,13.50
2019-02-12T23:38:34.783Z,12.57
2019-02-12T23:43:53.340Z,12.27
2019-02-12T23:49:12.015Z,12.60
2019-02-12T23:54:30.590Z,14.50
2019-02-12T23:59:49.344Z,13.33
